Time;durP1;ratioP1;P1;durP2;ratioP2;P2;SDS_P1;SDS_P2;PMS_P1;PMS_P2;Temp;Humidity;BMP_temperature;BMP_pressure;BME280_temperature;BME280_humidity;BME280_pressure;Samples;Min_cycle;Max_cycle;Signal;HPM_P1;HPM_P2
2021/12/01 00:00:41;;;;;;;2.70;2.60;;;10.40;99.90;;;;;;5144644;27;20221;-70
2021/12/01 00:03:09;;;;;;;3.57;3.10;;;10.40;99.90;;;;;;5152350;27;20208;-70
2021/12/01 00:05:38;;;;;;;4.20;3.90;;;10.40;99.90;;;;;;5150727;27;20205;-70
2021/12/01 00:08:06;;;;;;;5.27;4.87;;;10.40;99.90;;;;;;5157313;27;20209;-69
2021/12/01 00:10:37;;;;;;;5.87;5.30;;;10.30;99.90;;;;;;5135203;27;20192;-69
2021/12/01 00:13:08;;;;;;;5.17;4.80;;;10.30;99.90;;;;;;5150321;27;20196;-69
2021/12/01 00:15:39;;;;;;;4.93;4.50;;;10.20;99.90;;;;;;5148605;27;20708;-68
2021/12/01 00:18:08;;;;;;;6.47;5.17;;;10.20;99.90;;;;;;5153246;27;20251;-70
2021/12/01 00:20:37;;;;;;;4.70;4.40;;;10.20;99.90;;;;;;5158995;27;20194;-68
2021/12/01 00:23:08;;;;;;;4.87;4.53;;;10.10;99.90;;;;;;5158307;27;20184;-71
2021/12/01 00:25:39;;;;;;;5.33;4.80;;;10.10;99.90;;;;;;5164140;27;20185;-68
2021/12/01 00:28:09;;;;;;;4.90;4.60;;;10.10;99.90;;;;;;5149486;27;20189;-69
2021/12/01 00:30:40;;;;;;;4.30;4.07;;;10.10;99.90;;;;;;5149959;27;20185;-69
2021/12/01 00:33:13;;;;;;;4.70;4.40;;;10.10;99.90;;;;;;5147267;27;20202;-71
2021/12/01 00:35:42;;;;;;;4.60;4.27;;;10.20;99.90;;;;;;5148365;27;20225;-69
2021/12/01 00:38:10;;;;;;;4.57;4.20;;;10.10;99.90;;;;;;5149622;27;20231;-69
2021/12/01 00:40:39;;;;;;;3.63;3.43;;;10.10;99.90;;;;;;5153131;27;20202;-70
2021/12/01 00:43:15;;;;;;;3.33;3.23;;;10.10;99.90;;;;;;5144502;27;20201;-72
2021/12/01 00:45:50;;;;;;;3.43;3.20;;;10.00;99.90;;;;;;5132599;27;20647;-70
2021/12/01 00:48:20;;;;;;;3.30;3.20;;;9.90;99.90;;;;;;5144599;27;20197;-70
2021/12/01 00:50:50;;;;;;;3.30;3.20;;;9.90;99.90;;;;;;5154172;27;20224;-68
2021/12/01 00:53:19;;;;;;;3.10;2.90;;;9.90;99.90;;;;;;5156103;27;20198;-70
2021/12/01 00:55:48;;;;;;;2.97;2.87;;;9.80;99.90;;;;;;5160061;27;20213;-70
2021/12/01 00:58:17;;;;;;;3.77;3.40;;;9.80;99.90;;;;;;5151370;27;20208;-69
2021/12/01 01:00:48;;;;;;;3.10;3.00;;;9.80;99.90;;;;;;5150479;27;20203;-69
2021/12/01 01:03:21;;;;;;;2.73;2.73;;;9.70;99.90;;;;;;5143872;27;20217;-70
2021/12/01 01:05:51;;;;;;;3.27;2.97;;;9.70;99.90;;;;;;5125563;27;20367;-69
2021/12/01 01:08:19;;;;;;;3.17;3.00;;;9.70;99.90;;;;;;5131648;27;20209;-69
2021/12/01 01:11:09;;;;;;;8.00;3.10;;;9.60;99.90;;;;;;5156095;27;20216;-69
2021/12/01 01:16:24;;;;;;;3.57;3.37;;;9.60;99.90;;;;;;5146744;27;20221;-71
2021/12/01 01:18:58;;;;;;;3.60;3.40;;;9.50;99.90;;;;;;5131657;27;20288;-69
2021/12/01 01:21:31;;;;;;;3.80;3.60;;;9.50;99.90;;;;;;5155393;27;20289;-71
2021/12/01 01:24:00;;;;;;;3.40;3.30;;;9.50;99.90;;;;;;5158993;27;20603;-71
2021/12/01 01:26:29;;;;;;;3.43;3.33;;;9.40;99.90;;;;;;5148867;27;20201;-69
2021/12/01 01:28:58;;;;;;;3.37;3.23;;;9.40;99.90;;;;;;5157516;27;20190;-68
2021/12/01 01:31:26;;;;;;;3.87;3.67;;;9.50;99.90;;;;;;5144053;27;20655;-70
2021/12/01 01:33:57;;;;;;;4.00;3.67;;;9.50;99.90;;;;;;5142328;27;20186;-70
2021/12/01 01:36:27;;;;;;;4.03;3.73;;;9.50;99.90;;;;;;5145227;27;20210;-69
2021/12/01 01:38:57;;;;;;;3.97;3.77;;;9.40;99.90;;;;;;5139543;27;20271;-69
2021/12/01 01:41:26;;;;;;;4.33;4.03;;;9.40;99.90;;;;;;5120356;27;20214;-70
2021/12/01 01:43:55;;;;;;;3.80;3.60;;;9.40;99.90;;;;;;5123689;27;20286;-70
2021/12/01 01:46:23;;;;;;;3.93;3.63;;;9.40;99.90;;;;;;5139569;27;20260;-69
2021/12/01 01:48:53;;;;;;;3.70;3.43;;;9.40;99.90;;;;;;5144401;27;20226;-70
2021/12/01 01:51:27;;;;;;;4.30;4.07;;;9.40;99.90;;;;;;5155496;27;20193;-69
2021/12/01 01:53:56;;;;;;;4.23;3.80;;;9.40;99.90;;;;;;5137134;27;20189;-70
2021/12/01 01:56:26;;;;;;;4.83;3.57;;;9.40;99.90;;;;;;5148236;27;20275;-69
2021/12/01 01:58:55;;;;;;;3.90;3.70;;;9.40;99.90;;;;;;5160050;27;20198;-70
2021/12/01 02:01:44;;;;;;;3.93;3.63;;;9.40;99.90;;;;;;5154612;27;20197;-68
2021/12/01 02:04:15;;;;;;;3.80;3.60;;;9.30;99.90;;;;;;5127622;27;20194;-68
2021/12/01 02:06:47;;;;;;;3.50;3.30;;;9.40;99.90;;;;;;5126257;27;20262;-70
2021/12/01 02:09:19;;;;;;;3.40;3.20;;;9.30;99.90;;;;;;5152462;27;20271;-65
2021/12/01 02:11:48;;;;;;;2.80;2.70;;;9.30;99.90;;;;;;5152889;27;20182;-68
2021/12/01 02:14:17;;;;;;;3.30;3.10;;;9.30;99.90;;;;;;5142708;27;20241;-70
2021/12/01 02:16:46;;;;;;;3.10;2.87;;;9.30;99.90;;;;;;5150911;27;20205;-69
2021/12/01 02:19:15;;;;;;;2.93;2.70;;;9.20;99.90;;;;;;5123006;27;20190;-69
2021/12/01 02:21:46;;;;;;;3.80;3.60;;;9.20;99.90;;;;;;5140454;27;20193;-69
2021/12/01 02:24:16;;;;;;;2.83;2.73;;;9.20;99.90;;;;;;5128941;27;20275;-69
2021/12/01 02:26:49;;;;;;;3.47;3.20;;;9.10;99.90;;;;;;5148734;27;20189;-69
2021/12/01 02:29:20;;;;;;;3.60;3.50;;;9.10;99.90;;;;;;5145985;27;20600;-69
2021/12/01 02:31:50;;;;;;;4.10;3.80;;;9.10;99.90;;;;;;5151072;27;20197;-71
2021/12/01 02:34:20;;;;;;;4.30;3.53;;;9.00;99.90;;;;;;5133728;27;20227;-65
2021/12/01 02:36:53;;;;;;;4.10;3.80;;;9.00;99.90;;;;;;5156158;27;20322;-69
2021/12/01 02:39:21;;;;;;;4.17;3.87;;;8.90;99.90;;;;;;5151775;27;20189;-69
2021/12/01 02:41:54;;;;;;;4.67;4.23;;;8.90;99.90;;;;;;5147051;27;20556;-68
2021/12/01 02:44:24;;;;;;;4.97;4.47;;;8.90;99.90;;;;;;5154384;27;20643;-70
2021/12/01 02:46:53;;;;;;;5.07;3.90;;;8.90;99.90;;;;;;5136302;27;20221;-70
2021/12/01 02:49:22;;;;;;;5.10;4.60;;;8.90;99.90;;;;;;5144979;27;20289;-69
2021/12/01 02:51:54;;;;;;;5.10;4.60;;;8.90;99.90;;;;;;5127341;27;20563;-70
2021/12/01 02:54:23;;;;;;;4.67;4.33;;;8.90;99.90;;;;;;5126346;27;20200;-69
2021/12/01 02:56:53;;;;;;;5.73;4.40;;;8.80;99.90;;;;;;5153405;27;20675;-70
2021/12/01 02:59:23;;;;;;;5.23;4.83;;;8.80;99.90;;;;;;5140656;27;20704;-68
2021/12/01 03:01:51;;;;;;;5.57;5.20;;;8.80;99.90;;;;;;5127619;27;20641;-71
2021/12/01 03:04:23;;;;;;;5.33;5.00;;;8.80;99.90;;;;;;5138272;27;20217;-69
2021/12/01 03:06:54;;;;;;;5.47;5.00;;;8.80;99.90;;;;;;5123830;27;20732;-71
2021/12/01 03:09:23;;;;;;;5.33;4.93;;;8.70;99.90;;;;;;5120975;27;20221;-73
2021/12/01 03:11:51;;;;;;;5.37;4.87;;;8.70;99.90;;;;;;5134385;27;20639;-72
2021/12/01 03:14:21;;;;;;;5.37;4.97;;;8.70;99.90;;;;;;5140919;27;20577;-71
2021/12/01 03:16:51;;;;;;;7.20;5.40;;;8.70;99.90;;;;;;5143608;27;20559;-72
2021/12/01 03:19:20;;;;;;;5.07;4.67;;;8.70;99.90;;;;;;5147334;27;20221;-68
2021/12/01 03:21:49;;;;;;;5.70;5.10;;;8.60;99.90;;;;;;5153240;27;20189;-71
2021/12/01 03:24:19;;;;;;;7.03;5.27;;;8.60;99.90;;;;;;5145919;27;20652;-70
2021/12/01 03:26:47;;;;;;;7.17;4.50;;;8.60;99.90;;;;;;5154400;27;20239;-70
2021/12/01 03:29:16;;;;;;;6.13;4.37;;;8.60;99.90;;;;;;5148822;27;20714;-70
2021/12/01 03:31:45;;;;;;;4.80;4.40;;;8.50;99.90;;;;;;5140723;27;20198;-70
2021/12/01 03:34:14;;;;;;;4.77;4.47;;;8.50;99.90;;;;;;5144710;27;20652;-70
2021/12/01 03:36:45;;;;;;;4.63;4.23;;;8.50;99.90;;;;;;5146342;27;20544;-71
2021/12/01 03:39:13;;;;;;;5.30;4.80;;;8.50;99.90;;;;;;5149751;27;20263;-70
2021/12/01 03:41:43;;;;;;;4.20;3.90;;;8.50;99.90;;;;;;5149541;27;20259;-69
2021/12/01 03:44:12;;;;;;;4.73;4.37;;;8.50;99.90;;;;;;5116215;27;20242;-68
2021/12/01 03:46:40;;;;;;;5.93;4.30;;;8.50;99.90;;;;;;5141004;27;20699;-68
2021/12/01 03:49:11;;;;;;;4.77;4.20;;;8.50;99.90;;;;;;5147874;27;20683;-68
2021/12/01 03:51:40;;;;;;;4.37;3.80;;;8.50;99.90;;;;;;5139235;27;20900;-69
2021/12/01 03:54:11;;;;;;;4.17;3.87;;;8.50;99.90;;;;;;5148510;27;20193;-69
2021/12/01 03:56:39;;;;;;;4.20;4.00;;;8.50;99.90;;;;;;5149892;27;20226;-70
2021/12/01 03:59:10;;;;;;;4.60;4.30;;;8.50;99.90;;;;;;5152537;27;20224;-70
2021/12/01 04:01:38;;;;;;;5.50;5.00;;;8.50;99.90;;;;;;5146131;27;20199;-69
2021/12/01 04:04:06;;;;;;;6.07;5.60;;;8.50;99.90;;;;;;5146294;27;20276;-69
2021/12/01 04:06:35;;;;;;;7.13;6.57;;;8.40;99.90;;;;;;5118332;27;20194;-69
2021/12/01 04:09:05;;;;;;;9.23;6.53;;;8.40;99.90;;;;;;5152197;27;20217;-70
2021/12/01 04:11:37;;;;;;;6.77;6.10;;;8.40;99.90;;;;;;5107649;27;20186;-70
2021/12/01 04:14:06;;;;;;;8.27;5.70;;;8.40;99.90;;;;;;5128358;27;20197;-69
2021/12/01 04:16:35;;;;;;;7.73;5.70;;;8.30;99.90;;;;;;5148328;27;20208;-71
2021/12/01 04:19:05;;;;;;;6.47;5.80;;;8.30;99.90;;;;;;5130998;27;20313;-71
2021/12/01 04:21:34;;;;;;;5.63;4.93;;;8.30;99.90;;;;;;5139604;27;20719;-69
2021/12/01 04:24:02;;;;;;;5.70;5.20;;;8.30;99.90;;;;;;5150332;27;20201;-70
2021/12/01 04:26:33;;;;;;;7.83;4.97;;;8.30;99.90;;;;;;5151624;27;20232;-70
2021/12/01 04:29:04;;;;;;;7.80;4.93;;;8.30;99.90;;;;;;5152432;27;20180;-69
2021/12/01 04:31:40;;;;;;;5.10;4.70;;;8.30;99.90;;;;;;5137010;27;20558;-69
2021/12/01 04:34:09;;;;;;;4.43;4.03;;;8.30;99.90;;;;;;5149602;27;20189;-71
2021/12/01 04:36:40;;;;;;;4.13;3.73;;;8.30;99.90;;;;;;5148381;27;20246;-71
2021/12/01 04:39:12;;;;;;;3.50;3.30;;;8.30;99.90;;;;;;5147557;27;20200;-69
2021/12/01 04:41:50;;;;;;;3.50;3.20;;;8.30;99.90;;;;;;5154968;27;20197;-70
2021/12/01 04:44:19;;;;;;;3.70;3.50;;;8.30;99.90;;;;;;5148473;27;20202;-68
2021/12/01 04:46:52;;;;;;;3.77;3.57;;;8.30;99.90;;;;;;5110539;27;20229;-69
2021/12/01 04:49:23;;;;;;;3.13;3.03;;;8.30;99.90;;;;;;5137320;27;20643;-68
2021/12/01 04:51:55;;;;;;;5.07;3.30;;;8.30;99.90;;;;;;5129240;27;20218;-70
2021/12/01 04:54:25;;;;;;;3.10;2.90;;;8.30;99.90;;;;;;5125069;27;20194;-70
2021/12/01 04:56:55;;;;;;;2.97;2.87;;;8.30;99.90;;;;;;5127208;27;20218;-66
2021/12/01 04:59:24;;;;;;;3.20;3.00;;;8.30;99.90;;;;;;5137493;27;20211;-68
2021/12/01 05:01:56;;;;;;;3.37;3.17;;;8.30;99.90;;;;;;5130213;27;20713;-73
2021/12/01 05:04:25;;;;;;;3.17;3.03;;;8.30;99.90;;;;;;5124212;27;20567;-71
2021/12/01 05:06:53;;;;;;;3.50;3.30;;;8.30;99.90;;;;;;5122234;27;20195;-67
2021/12/01 05:09:22;;;;;;;3.63;3.33;;;8.30;99.90;;;;;;5137998;27;20206;-70
2021/12/01 05:11:51;;;;;;;3.67;3.43;;;8.40;99.90;;;;;;5130206;27;20202;-71
2021/12/01 05:14:20;;;;;;;4.07;3.83;;;8.40;99.90;;;;;;5126281;27;20248;-70
2021/12/01 05:16:49;;;;;;;3.63;3.43;;;8.40;99.90;;;;;;5127233;27;20209;-71
2021/12/01 05:19:21;;;;;;;3.80;3.60;;;8.40;99.90;;;;;;5125115;27;20227;-72
2021/12/01 05:21:50;;;;;;;4.40;4.00;;;8.40;99.90;;;;;;5129865;27;20202;-70
2021/12/01 05:24:19;;;;;;;4.27;4.07;;;8.40;99.90;;;;;;5124813;27;20198;-68
2021/12/01 05:26:47;;;;;;;4.70;4.30;;;8.40;99.90;;;;;;5125444;27;20259;-70
2021/12/01 05:29:16;;;;;;;4.50;3.80;;;8.40;99.90;;;;;;5127868;27;20187;-69
2021/12/01 05:31:45;;;;;;;5.60;4.20;;;8.40;99.90;;;;;;5128525;27;20197;-71
2021/12/01 05:34:13;;;;;;;4.90;4.57;;;8.50;99.90;;;;;;5125773;27;20194;-70
2021/12/01 05:36:43;;;;;;;4.60;4.30;;;8.50;99.90;;;;;;5128600;27;20195;-70
2021/12/01 05:39:12;;;;;;;4.40;4.00;;;8.50;99.90;;;;;;5135854;27;20222;-70
2021/12/01 05:41:40;;;;;;;4.47;4.07;;;8.50;99.90;;;;;;5131232;27;20391;-71
2021/12/01 05:44:09;;;;;;;3.60;3.30;;;8.60;99.90;;;;;;5131361;27;20228;-67
2021/12/01 05:46:38;;;;;;;5.23;3.40;;;8.60;99.90;;;;;;5144196;27;20221;-71
2021/12/01 05:49:09;;;;;;;3.60;3.40;;;8.60;99.90;;;;;;5147517;27;20242;-71
2021/12/01 05:51:38;;;;;;;3.20;3.10;;;8.70;99.90;;;;;;5145313;27;20194;-70
2021/12/01 05:54:08;;;;;;;3.10;3.00;;;8.60;99.90;;;;;;5138632;27;20266;-70
2021/12/01 05:56:36;;;;;;;3.17;3.00;;;8.70;99.90;;;;;;5147028;27;20212;-70
2021/12/01 05:59:05;;;;;;;3.00;2.80;;;8.70;99.90;;;;;;5127575;27;20202;-71
2021/12/01 06:01:34;;;;;;;3.17;3.07;;;8.70;99.90;;;;;;5127546;27;20197;-71
2021/12/01 06:04:03;;;;;;;3.00;2.80;;;8.70;99.90;;;;;;5105218;27;20849;-71
2021/12/01 06:06:31;;;;;;;3.27;2.70;;;8.70;99.90;;;;;;5147065;27;20209;-71
2021/12/01 06:09:00;;;;;;;2.63;2.53;;;8.70;99.90;;;;;;5121396;27;20184;-69
2021/12/01 06:11:30;;;;;;;2.60;2.47;;;8.70;99.90;;;;;;5123476;27;20208;-72
2021/12/01 06:13:59;;;;;;;3.27;3.00;;;8.70;99.90;;;;;;5122306;27;20198;-69
2021/12/01 06:16:27;;;;;;;3.23;2.90;;;8.80;99.90;;;;;;5135875;27;20206;-71
2021/12/01 06:18:56;;;;;;;2.60;2.50;;;8.80;99.90;;;;;;5115390;27;20211;-71
2021/12/01 06:21:25;;;;;;;2.40;2.30;;;8.80;99.90;;;;;;5140761;27;20258;-69
2021/12/01 06:23:53;;;;;;;2.70;2.50;;;8.80;99.90;;;;;;5143728;27;20190;-69
2021/12/01 06:26:24;;;;;;;2.50;2.40;;;8.80;99.90;;;;;;5137142;27;20198;-71
2021/12/01 06:28:54;;;;;;;4.33;3.00;;;8.70;99.90;;;;;;5151314;27;20243;-70
2021/12/01 06:31:23;;;;;;;3.27;2.97;;;8.70;99.90;;;;;;5137165;27;20224;-71
2021/12/01 06:33:51;;;;;;;4.23;2.73;;;8.80;99.90;;;;;;5145935;27;20270;-69
2021/12/01 06:36:20;;;;;;;2.93;2.73;;;8.80;99.90;;;;;;5141459;27;20217;-71
2021/12/01 06:38:48;;;;;;;2.80;2.70;;;8.80;99.90;;;;;;5141552;27;20202;-71
2021/12/01 06:41:17;;;;;;;3.33;3.13;;;8.80;99.90;;;;;;5144900;27;20190;-70
2021/12/01 06:43:46;;;;;;;3.30;3.13;;;8.80;99.90;;;;;;5150534;27;20213;-71
2021/12/01 06:46:15;;;;;;;3.67;3.00;;;8.80;99.90;;;;;;5150763;27;20731;-70
2021/12/01 06:48:44;;;;;;;2.97;2.87;;;8.80;99.90;;;;;;5130558;27;20189;-71
2021/12/01 06:51:12;;;;;;;4.90;3.80;;;8.90;99.90;;;;;;5140323;27;20190;-71
2021/12/01 06:53:41;;;;;;;3.30;3.20;;;8.80;99.90;;;;;;5142880;27;20222;-71
2021/12/01 06:56:12;;;;;;;4.00;3.40;;;8.80;99.90;;;;;;5142754;27;20182;-70
2021/12/01 06:58:40;;;;;;;3.70;3.50;;;8.80;99.90;;;;;;5122387;27;20194;-70
2021/12/01 07:01:09;;;;;;;4.40;4.10;;;8.80;99.90;;;;;;5149562;27;20242;-71
2021/12/01 07:03:43;;;;;;;4.37;3.97;;;8.80;99.90;;;;;;5141397;27;20197;-71
2021/12/01 07:06:12;;;;;;;4.80;4.43;;;8.80;99.90;;;;;;5125590;27;20200;-71
2021/12/01 07:08:41;;;;;;;4.03;3.83;;;8.80;99.90;;;;;;5147766;27;20224;-71
2021/12/01 07:11:10;;;;;;;9.93;4.60;;;8.80;99.90;;;;;;5146235;27;20213;-69
2021/12/01 07:13:39;;;;;;;5.70;4.70;;;8.80;99.90;;;;;;5133327;27;20185;-70
2021/12/01 07:16:11;;;;;;;6.23;5.27;;;8.90;99.90;;;;;;5147807;27;20193;-71
2021/12/01 07:18:43;;;;;;;8.63;5.00;;;8.80;99.90;;;;;;5144507;27;20261;-71
2021/12/01 07:21:11;;;;;;;8.67;5.17;;;8.90;99.90;;;;;;5141559;27;20209;-71
2021/12/01 07:23:40;;;;;;;4.87;4.40;;;8.80;99.90;;;;;;5142740;27;20186;-71
2021/12/01 07:26:10;;;;;;;4.13;3.83;;;8.80;99.90;;;;;;5145789;27;20266;-69
2021/12/01 07:28:38;;;;;;;4.50;3.77;;;8.80;99.90;;;;;;5148800;27;20196;-70
2021/12/01 07:31:07;;;;;;;2.57;2.43;;;8.80;99.90;;;;;;5123616;27;20266;-70
2021/12/01 07:33:36;;;;;;;2.37;2.27;;;8.90;99.90;;;;;;5144307;27;20182;-69
2021/12/01 07:36:08;;;;;;;1.93;1.83;;;8.90;99.90;;;;;;5136850;27;20236;-70
2021/12/01 07:38:37;;;;;;;1.70;1.60;;;8.80;99.90;;;;;;5138256;27;20223;-70
2021/12/01 07:41:05;;;;;;;1.50;1.50;;;8.80;99.90;;;;;;5138760;27;20213;-70
2021/12/01 07:43:34;;;;;;;2.80;2.50;;;8.80;99.90;;;;;;5126090;27;20277;-70
2021/12/01 07:46:02;;;;;;;7.43;5.77;;;8.80;99.90;;;;;;5127790;27;20229;-71
2021/12/01 07:48:32;;;;;;;14.13;10.77;;;8.80;99.90;;;;;;5129441;27;20250;-70
2021/12/01 07:51:01;;;;;;;4.27;4.07;;;8.80;99.90;;;;;;5151929;27;20185;-71
2021/12/01 07:53:31;;;;;;;4.17;3.93;;;8.80;99.90;;;;;;5143914;27;20208;-71
2021/12/01 07:56:02;;;;;;;2.23;2.23;;;8.90;99.90;;;;;;5151293;27;20201;-70
2021/12/01 07:58:31;;;;;;;4.73;2.10;;;8.90;99.90;;;;;;5136154;27;20258;-70
2021/12/01 08:00:59;;;;;;;2.10;1.70;;;8.90;99.90;;;;;;5145939;27;20294;-71
2021/12/01 08:03:28;;;;;;;3.90;3.73;;;8.90;99.90;;;;;;5145303;27;20185;-71
2021/12/01 08:05:57;;;;;;;2.10;2.00;;;8.90;99.90;;;;;;5142579;27;20193;-71
2021/12/01 08:08:29;;;;;;;3.00;2.90;;;8.90;99.90;;;;;;5149955;27;20236;-71
2021/12/01 08:10:59;;;;;;;3.03;2.93;;;8.90;99.90;;;;;;5143770;27;20198;-71
2021/12/01 08:13:28;;;;;;;2.57;2.37;;;9.00;99.90;;;;;;5145118;27;20282;-70
2021/12/01 08:15:57;;;;;;;1.70;1.70;;;9.00;99.90;;;;;;5124416;27;20582;-70
2021/12/01 08:18:26;;;;;;;3.63;2.23;;;9.00;99.90;;;;;;5139030;27;20226;-71
2021/12/01 08:20:54;;;;;;;1.80;1.70;;;9.00;99.90;;;;;;5156490;27;20208;-71
2021/12/01 08:23:23;;;;;;;1.80;1.63;;;9.00;99.90;;;;;;5142196;27;20189;-70
2021/12/01 08:25:52;;;;;;;3.90;3.70;;;9.00;99.90;;;;;;5150697;27;20677;-71
2021/12/01 08:28:22;;;;;;;2.20;2.10;;;9.00;99.90;;;;;;5149126;27;20753;-71
2021/12/01 08:30:50;;;;;;;3.23;3.07;;;9.00;99.90;;;;;;5149743;27;20551;-71
2021/12/01 08:33:19;;;;;;;19.90;13.60;;;9.00;99.90;;;;;;5148080;27;20197;-71
2021/12/01 08:35:48;;;;;;;5.13;4.73;;;9.00;99.90;;;;;;5153206;27;20212;-71
2021/12/01 08:38:18;;;;;;;69.37;42.03;;;9.00;99.90;;;;;;5142231;27;20198;-71
2021/12/01 08:40:47;;;;;;;22.60;14.20;;;9.00;99.90;;;;;;5146775;27;20552;-71
2021/12/01 08:43:15;;;;;;;3.57;3.37;;;9.00;99.90;;;;;;5148931;27;20260;-72
2021/12/01 08:45:46;;;;;;;3.97;2.90;;;9.00;99.90;;;;;;5137305;27;20591;-69
2021/12/01 08:48:17;;;;;;;2.57;2.47;;;9.10;99.90;;;;;;5143941;27;20286;-71
2021/12/01 08:50:45;;;;;;;3.03;2.87;;;9.10;99.90;;;;;;5130711;27;20605;-70
2021/12/01 08:53:14;;;;;;;2.60;2.50;;;9.20;99.90;;;;;;5122831;27;20675;-71
2021/12/01 08:55:44;;;;;;;3.47;3.27;;;9.20;99.90;;;;;;5126154;27;20481;-71
2021/12/01 08:58:13;;;;;;;2.97;2.77;;;9.30;99.90;;;;;;5129358;27;20605;-72
2021/12/01 09:00:44;;;;;;;2.60;2.50;;;9.20;99.90;;;;;;5144938;27;20567;-71
2021/12/01 09:03:17;;;;;;;3.93;3.63;;;9.20;99.90;;;;;;5123569;27;20185;-71
2021/12/01 09:05:48;;;;;;;3.10;2.90;;;9.20;99.90;;;;;;5147668;27;20245;-72
2021/12/01 09:08:20;;;;;;;3.67;3.30;;;9.20;99.90;;;;;;5134376;27;20821;-71
2021/12/01 09:10:52;;;;;;;2.20;2.10;;;9.20;99.90;;;;;;5138076;27;20262;-70
2021/12/01 09:13:22;;;;;;;3.03;1.93;;;9.10;99.90;;;;;;5137686;27;20678;-70
2021/12/01 09:15:52;;;;;;;2.43;1.93;;;8.90;99.90;;;;;;5129779;27;20189;-70
2021/12/01 09:18:27;;;;;;;2.17;1.60;;;8.80;99.90;;;;;;5132902;27;20246;-71
2021/12/01 09:20:56;;;;;;;1.60;1.50;;;8.70;99.90;;;;;;5152785;27;20210;-70
2021/12/01 09:23:25;;;;;;;2.43;1.80;;;8.70;99.90;;;;;;5152558;27;20856;-70
2021/12/01 09:25:54;;;;;;;3.00;1.57;;;8.70;99.90;;;;;;5128975;27;20767;-71
2021/12/01 09:28:25;;;;;;;4.03;1.63;;;8.60;99.90;;;;;;5130253;27;20184;-71
2021/12/01 09:30:55;;;;;;;7.17;1.80;;;8.70;99.90;;;;;;5130662;27;20662;-70
2021/12/01 09:33:27;;;;;;;5.47;2.33;;;8.70;99.90;;;;;;5147415;27;20216;-71
2021/12/01 09:35:56;;;;;;;7.50;1.93;;;8.70;99.90;;;;;;5135592;27;20201;-71
2021/12/01 09:38:26;;;;;;;4.90;2.40;;;8.70;99.90;;;;;;5146104;27;20743;-70
2021/12/01 09:40:57;;;;;;;4.53;2.30;;;8.70;99.90;;;;;;5151939;27;20212;-71
2021/12/01 09:43:31;;;;;;;3.07;2.37;;;8.80;99.90;;;;;;5153664;27;20245;-71
2021/12/01 09:46:03;;;;;;;5.37;2.63;;;8.80;99.90;;;;;;5150017;27;20700;-70
2021/12/01 09:48:34;;;;;;;6.57;2.37;;;8.80;99.90;;;;;;5133356;27;20193;-71
2021/12/01 09:51:17;;;;;;;3.03;2.17;;;8.80;99.90;;;;;;5158815;27;20185;-70
2021/12/01 09:53:46;;;;;;;5.97;2.90;;;8.80;99.90;;;;;;5142080;27;20652;-71
2021/12/01 09:56:15;;;;;;;11.27;2.57;;;8.80;99.90;;;;;;5129850;27;20228;-71
2021/12/01 09:58:44;;;;;;;7.17;2.13;;;8.90;99.90;;;;;;5145443;27;20705;-70
2021/12/01 10:01:16;;;;;;;8.33;2.40;;;8.90;99.90;;;;;;5156892;27;20674;-70
2021/12/01 10:03:47;;;;;;;12.13;2.37;;;8.90;99.90;;;;;;5149650;27;20589;-70
2021/12/01 10:06:18;;;;;;;10.17;2.57;;;9.00;99.90;;;;;;5151525;27;20276;-71
2021/12/01 10:08:50;;;;;;;3.00;2.00;;;9.10;99.90;;;;;;5145370;27;20242;-71
2021/12/01 10:11:20;;;;;;;4.40;2.13;;;9.10;99.90;;;;;;5127315;27;20186;-71
2021/12/01 10:13:52;;;;;;;6.33;2.00;;;9.30;99.90;;;;;;5149338;27;20256;-71
2021/12/01 10:16:21;;;;;;;7.13;2.07;;;9.30;99.90;;;;;;5158770;27;20193;-70
2021/12/01 10:18:53;;;;;;;11.03;2.00;;;9.20;99.90;;;;;;5149455;27;20207;-71
2021/12/01 10:21:23;;;;;;;9.73;1.83;;;9.10;99.90;;;;;;5129152;27;20214;-70
2021/12/01 10:23:55;;;;;;;9.87;2.13;;;9.10;99.90;;;;;;5131265;27;20671;-71
2021/12/01 10:26:25;;;;;;;6.10;2.23;;;8.90;99.90;;;;;;5153158;27;20231;-71
2021/12/01 10:28:56;;;;;;;9.63;1.93;;;8.90;99.90;;;;;;5134054;27;20197;-71
2021/12/01 10:31:39;;;;;;;5.33;1.63;;;8.90;99.90;;;;;;5129751;27;20675;-72
2021/12/01 10:34:22;;;;;;;3.40;1.60;;;8.90;99.90;;;;;;5144628;27;20200;-71
2021/12/01 10:37:06;;;;;;;2.90;1.80;;;9.00;99.90;;;;;;5141928;27;20286;-71
2021/12/01 10:39:35;;;;;;;7.20;2.10;;;9.10;99.90;;;;;;5150188;27;20197;-71
2021/12/01 10:42:05;;;;;;;2.90;1.70;;;9.10;99.90;;;;;;5103938;27;20258;-71
2021/12/01 10:44:34;;;;;;;5.07;1.87;;;9.00;99.90;;;;;;5120704;27;20284;-71
2021/12/01 10:47:09;;;;;;;2.83;1.70;;;9.00;99.90;;;;;;5134364;27;20703;-71
2021/12/01 10:49:42;;;;;;;7.07;1.50;;;9.00;99.90;;;;;;5139967;27;20215;-71
2021/12/01 10:52:29;;;;;;;7.00;1.70;;;8.80;99.90;;;;;;5147010;27;20273;-71
2021/12/01 10:55:10;;;;;;;4.77;1.40;;;8.80;99.90;;;;;;5133691;27;20192;-71
2021/12/01 10:57:41;;;;;;;1.57;1.47;;;8.80;99.90;;;;;;5158121;27;20257;-71
2021/12/01 11:00:18;;;;;;;7.17;1.40;;;8.80;99.90;;;;;;5125643;27;20679;-70
2021/12/01 11:02:48;;;;;;;1.50;1.10;;;8.90;99.90;;;;;;5152303;27;20272;-72
2021/12/01 11:05:29;;;;;;;4.03;1.50;;;8.90;99.90;;;;;;5150583;27;20203;-71
2021/12/01 11:08:11;;;;;;;2.43;1.17;;;9.00;99.90;;;;;;5131758;27;20193;-71
2021/12/01 11:10:41;;;;;;;1.20;1.10;;;9.10;99.90;;;;;;5150049;27;20197;-71
2021/12/01 11:13:10;;;;;;;2.57;1.30;;;9.10;99.90;;;;;;5127646;27;20197;-72
2021/12/01 11:15:45;;;;;;;5.67;1.50;;;9.10;99.90;;;;;;5150630;27;20199;-71
2021/12/01 11:18:19;;;;;;;3.03;1.73;;;9.20;99.90;;;;;;5123062;27;20563;-71
2021/12/01 11:21:13;;;;;;;6.60;1.37;;;9.30;99.90;;;;;;5139888;27;20620;-71
2021/12/01 11:23:43;;;;;;;1.70;1.13;;;9.40;99.90;;;;;;5149122;27;20220;-72
2021/12/01 11:26:14;;;;;;;2.03;1.30;;;9.50;99.90;;;;;;5140948;27;20264;-70
2021/12/01 11:28:44;;;;;;;3.07;1.43;;;9.50;99.90;;;;;;5152865;27;20717;-71
2021/12/01 11:31:16;;;;;;;3.23;1.53;;;9.50;99.90;;;;;;5142089;27;20214;-71
2021/12/01 11:33:46;;;;;;;3.00;1.63;;;9.50;99.90;;;;;;5139376;27;20286;-71
2021/12/01 11:36:22;;;;;;;3.80;1.50;;;9.50;99.90;;;;;;5149134;27;20201;-71
2021/12/01 11:38:55;;;;;;;2.80;1.20;;;9.50;99.90;;;;;;5136617;27;20667;-71
2021/12/01 11:41:24;;;;;;;2.80;1.40;;;9.50;99.90;;;;;;5139264;27;20190;-71
2021/12/01 11:43:58;;;;;;;1.30;1.20;;;9.50;99.90;;;;;;5125640;27;20194;-72
2021/12/01 11:46:30;;;;;;;1.60;1.50;;;9.70;99.90;;;;;;5130046;27;20253;-71
2021/12/01 11:49:01;;;;;;;4.43;1.60;;;9.80;99.90;;;;;;5142065;27;20198;-71
2021/12/01 11:51:40;;;;;;;4.33;2.17;;;9.80;99.90;;;;;;5146881;27;20200;-71
2021/12/01 11:54:12;;;;;;;2.67;1.63;;;9.70;99.90;;;;;;5145009;27;20205;-71
2021/12/01 11:56:49;;;;;;;4.03;1.50;;;9.70;99.90;;;;;;5119116;27;20186;-71
2021/12/01 11:59:23;;;;;;;5.97;1.80;;;9.60;99.90;;;;;;5127394;27;20215;-71
2021/12/01 12:01:55;;;;;;;2.00;1.27;;;9.50;99.90;;;;;;5137944;27;20218;-71
2021/12/01 12:04:42;;;;;;;5.77;1.70;;;9.50;99.90;;;;;;5139544;27;20196;-71
2021/12/01 12:07:17;;;;;;;2.87;1.70;;;9.40;99.90;;;;;;5120704;27;20189;-71
2021/12/01 12:10:14;;;;;;;3.77;1.43;;;9.40;99.90;;;;;;5144803;27;20219;-71
2021/12/01 12:13:02;;;;;;;4.17;1.50;;;9.40;99.90;;;;;;5117264;27;20194;-71
2021/12/01 12:15:45;;;;;;;2.87;1.40;;;9.40;99.90;;;;;;5137112;27;20309;-71
2021/12/01 12:18:35;;;;;;;4.90;1.63;;;9.50;99.90;;;;;;5137690;27;20719;-71
2021/12/01 12:21:14;;;;;;;3.60;1.63;;;9.60;99.90;;;;;;5136019;27;20197;-71
2021/12/01 12:23:46;;;;;;;3.10;1.43;;;9.60;99.90;;;;;;5149407;27;20233;-70
2021/12/01 12:26:33;;;;;;;3.47;1.80;;;9.60;99.90;;;;;;5154427;27;20243;-71
2021/12/01 12:29:05;;;;;;;4.33;2.13;;;9.50;99.90;;;;;;5124669;27;20257;-71
2021/12/01 12:31:34;;;;;;;3.53;1.63;;;9.50;99.90;;;;;;5141802;27;20667;-70
2021/12/01 12:34:08;;;;;;;2.47;1.90;;;9.60;99.90;;;;;;5138067;27;20708;-70
2021/12/01 12:36:42;;;;;;;2.83;1.93;;;9.60;99.90;;;;;;5137954;27;20196;-71
2021/12/01 12:39:17;;;;;;;2.97;2.30;;;9.60;99.90;;;;;;5128555;27;20185;-70
2021/12/01 12:42:08;;;;;;;3.70;2.10;;;9.70;99.90;;;;;;5138107;27;20246;-70
2021/12/01 12:44:39;;;;;;;4.30;1.90;;;9.70;99.90;;;;;;5143500;27;20197;-71
2021/12/01 12:47:30;;;;;;;5.53;1.93;;;9.70;99.90;;;;;;5141763;27;20985;-71
2021/12/01 12:50:12;;;;;;;5.70;1.77;;;9.70;99.90;;;;;;5141473;27;20239;-71
2021/12/01 12:52:42;;;;;;;3.47;1.80;;;9.70;99.90;;;;;;5148953;27;20217;-71
2021/12/01 12:55:37;;;;;;;4.80;1.60;;;9.70;99.90;;;;;;5137992;27;20223;-70
2021/12/01 12:58:08;;;;;;;4.27;1.90;;;9.60;99.90;;;;;;5144054;27;20192;-70
2021/12/01 13:00:39;;;;;;;4.20;2.10;;;9.60;99.90;;;;;;5139265;27;20301;-71
2021/12/01 13:03:29;;;;;;;5.77;1.83;;;9.50;99.90;;;;;;5121811;27;20214;-70
2021/12/01 13:05:59;;;;;;;4.87;2.07;;;9.50;99.90;;;;;;5144336;27;20207;-70
2021/12/01 13:08:31;;;;;;;5.53;1.80;;;9.40;99.90;;;;;;5139055;27;20759;-70
2021/12/01 13:11:04;;;;;;;3.27;1.53;;;9.40;99.90;;;;;;5142910;27;20194;-70
2021/12/01 13:13:35;;;;;;;5.17;2.10;;;9.40;99.90;;;;;;5148629;27;20208;-71
2021/12/01 13:16:05;;;;;;;5.60;1.80;;;9.40;99.90;;;;;;5124447;27;20194;-70
2021/12/01 13:18:36;;;;;;;3.23;1.60;;;9.40;99.90;;;;;;5148479;27;20261;-70